sensor_id;sensor_type;location;lat;lon;timestamp;temperature;humidity
3528;DHT22;1778;47.966;7.854;2023-07-31T00:00:14;15.50;99.90
3528;DHT22;1778;47.966;7.854;2023-07-31T00:01:16;15.50;99.90
3528;DHT22;1778;47.966;7.854;2023-07-31T00:02:17;15.50;99.90
3528;DHT22;1778;47.966;7.854;2023-07-31T00:03:19;15.50;99.90
3528;DHT22;1778;47.966;7.854;2023-07-31T00:04:20;15.50;99.90
3528;DHT22;1778;47.966;7.854;2023-07-31T00:05:22;15.50;99.90
3528;DHT22;1778;47.966;7.854;2023-07-31T00:06:23;15.60;99.90
3528;DHT22;1778;47.966;7.854;2023-07-31T00:07:25;15.50;99.90
3528;DHT22;1778;47.966;7.854;2023-07-31T00:08:26;15.50;99.90
3528;DHT22;1778;47.966;7.854;2023-07-31T00:09:28;15.50;99.90
3528;DHT22;1778;47.966;7.854;2023-07-31T00:10:30;15.50;99.90
3528;DHT22;1778;47.966;7.854;2023-07-31T00:11:31;15.50;99.90
3528;DHT22;1778;47.966;7.854;2023-07-31T00:12:33;15.40;99.90
3528;DHT22;1778;47.966;7.854;2023-07-31T00:13:34;15.40;99.90
3528;DHT22;1778;47.966;7.854;2023-07-31T00:14:36;15.40;99.90
3528;DHT22;1778;47.966;7.854;2023-07-31T00:15:38;15.40;99.90
3528;DHT22;1778;47.966;7.854;2023-07-31T00:16:39;15.30;99.90
3528;DHT22;1778;47.966;7.854;2023-07-31T00:17:41;15.30;99.90
3528;DHT22;1778;47.966;7.854;2023-07-31T00:18:42;15.30;99.90
3528;DHT22;1778;47.966;7.854;2023-07-31T00:19:44;15.30;99.90
3528;DHT22;1778;47.966;7.854;2023-07-31T00:20:47;15.30;99.90
3528;DHT22;1778;47.966;7.854;2023-07-31T00:21:49;15.30;99.90
3528;DHT22;1778;47.966;7.854;2023-07-31T00:22:50;15.40;99.90
3528;DHT22;1778;47.966;7.854;2023-07-31T00:23:51;15.40;99.90
3528;DHT22;1778;47.966;7.854;2023-07-31T00:24:53;15.30;99.90
3528;DHT22;1778;47.966;7.854;2023-07-31T00:25:54;15.30;99.90
3528;DHT22;1778;47.966;7.854;2023-07-31T00:26:56;15.30;99.90
3528;DHT22;1778;47.966;7.854;2023-07-31T00:27:57;15.30;99.90
3528;DHT22;1778;47.966;7.854;2023-07-31T00:29:00;15.30;99.90
3528;DHT22;1778;47.966;7.854;2023-07-31T00:30:01;15.30;99.90
3528;DHT22;1778;47.966;7.854;2023-07-31T00:31:04;15.30;99.90
3528;DHT22;1778;47.966;7.854;2023-07-31T00:32:06;15.30;99.90
3528;DHT22;1778;47.966;7.854;2023-07-31T00:33:07;15.20;99.90
3528;DHT22;1778;47.966;7.854;2023-07-31T00:34:11;15.20;99.90
3528;DHT22;1778;47.966;7.854;2023-07-31T00:35:12;15.20;99.90
3528;DHT22;1778;47.966;7.854;2023-07-31T00:36:14;15.20;99.90
3528;DHT22;1778;47.966;7.854;2023-07-31T00:37:16;15.20;99.90
3528;DHT22;1778;47.966;7.854;2023-07-31T00:38:18;15.20;99.90
3528;DHT22;1778;47.966;7.854;2023-07-31T00:39:19;15.20;99.90
3528;DHT22;1778;47.966;7.854;2023-07-31T00:40:21;15.20;99.90
3528;DHT22;1778;47.966;7.854;2023-07-31T00:41:22;15.20;99.90
3528;DHT22;1778;47.966;7.854;2023-07-31T00:42:24;15.10;99.90
3528;DHT22;1778;47.966;7.854;2023-07-31T00:43:26;15.20;99.90
3528;DHT22;1778;47.966;7.854;2023-07-31T00:44:27;15.10;99.90
3528;DHT22;1778;47.966;7.854;2023-07-31T00:45:29;15.10;99.90
3528;DHT22;1778;47.966;7.854;2023-07-31T00:46:30;15.10;99.90
3528;DHT22;1778;47.966;7.854;2023-07-31T00:47:32;15.20;99.90
3528;DHT22;1778;47.966;7.854;2023-07-31T00:48:34;15.10;99.90
3528;DHT22;1778;47.966;7.854;2023-07-31T00:49:36;15.10;99.90
3528;DHT22;1778;47.966;7.854;2023-07-31T00:50:39;15.10;99.90
3528;DHT22;1778;47.966;7.854;2023-07-31T00:51:40;15.00;99.90
3528;DHT22;1778;47.966;7.854;2023-07-31T00:52:42;15.00;99.90
3528;DHT22;1778;47.966;7.854;2023-07-31T00:53:43;15.00;99.90
3528;DHT22;1778;47.966;7.854;2023-07-31T00:54:46;14.90;99.90
3528;DHT22;1778;47.966;7.854;2023-07-31T00:55:47;15.00;99.90
3528;DHT22;1778;47.966;7.854;2023-07-31T00:56:50;14.90;99.90
3528;DHT22;1778;47.966;7.854;2023-07-31T00:57:53;14.90;99.90
3528;DHT22;1778;47.966;7.854;2023-07-31T00:58:56;14.80;99.90
3528;DHT22;1778;47.966;7.854;2023-07-31T00:59:58;14.90;99.90
3528;DHT22;1778;47.966;7.854;2023-07-31T01:01:00;14.90;99.90
3528;DHT22;1778;47.966;7.854;2023-07-31T01:02:02;14.80;99.90
3528;DHT22;1778;47.966;7.854;2023-07-31T01:03:04;14.80;99.90
3528;DHT22;1778;47.966;7.854;2023-07-31T01:04:06;14.80;99.90
3528;DHT22;1778;47.966;7.854;2023-07-31T01:05:07;14.80;99.90
3528;DHT22;1778;47.966;7.854;2023-07-31T01:06:14;14.80;99.90
3528;DHT22;1778;47.966;7.854;2023-07-31T01:07:25;14.80;99.90
3528;DHT22;1778;47.966;7.854;2023-07-31T01:08:40;14.80;99.90
3528;DHT22;1778;47.966;7.854;2023-07-31T01:09:52;14.80;99.90
3528;DHT22;1778;47.966;7.854;2023-07-31T01:11:51;14.80;99.90
3528;DHT22;1778;47.966;7.854;2023-07-31T01:12:31;14.80;99.90
3528;DHT22;1778;47.966;7.854;2023-07-31T01:13:34;14.80;99.90
3528;DHT22;1778;47.966;7.854;2023-07-31T01:14:35;14.70;99.90
3528;DHT22;1778;47.966;7.854;2023-07-31T01:15:37;14.70;99.90
3528;DHT22;1778;47.966;7.854;2023-07-31T01:16:39;14.70;99.90
3528;DHT22;1778;47.966;7.854;2023-07-31T01:17:42;14.70;99.90
3528;DHT22;1778;47.966;7.854;2023-07-31T01:18:44;14.70;99.90
3528;DHT22;1778;47.966;7.854;2023-07-31T01:19:46;14.60;99.90
3528;DHT22;1778;47.966;7.854;2023-07-31T01:20:54;14.70;99.90
3528;DHT22;1778;47.966;7.854;2023-07-31T01:26:05;14.60;99.90
3528;DHT22;1778;47.966;7.854;2023-07-31T01:27:14;14.60;99.90
3528;DHT22;1778;47.966;7.854;2023-07-31T01:29:20;14.50;99.90
3528;DHT22;1778;47.966;7.854;2023-07-31T01:30:11;14.50;99.90
3528;DHT22;1778;47.966;7.854;2023-07-31T01:31:21;14.50;99.90
3528;DHT22;1778;47.966;7.854;2023-07-31T01:32:26;14.40;99.90
3528;DHT22;1778;47.966;7.854;2023-07-31T01:33:47;14.40;99.90
3528;DHT22;1778;47.966;7.854;2023-07-31T01:34:49;14.40;99.90
3528;DHT22;1778;47.966;7.854;2023-07-31T01:35:52;14.40;99.90
3528;DHT22;1778;47.966;7.854;2023-07-31T01:36:55;14.40;99.90
3528;DHT22;1778;47.966;7.854;2023-07-31T01:37:57;14.40;99.90
3528;DHT22;1778;47.966;7.854;2023-07-31T01:38:59;14.30;99.90
3528;DHT22;1778;47.966;7.854;2023-07-31T01:40:03;14.30;99.90
3528;DHT22;1778;47.966;7.854;2023-07-31T01:41:04;14.30;99.90
3528;DHT22;1778;47.966;7.854;2023-07-31T01:42:06;14.40;99.90
3528;DHT22;1778;47.966;7.854;2023-07-31T01:43:09;14.40;99.90
3528;DHT22;1778;47.966;7.854;2023-07-31T01:44:10;14.40;99.90
3528;DHT22;1778;47.966;7.854;2023-07-31T01:45:12;14.40;99.90
3528;DHT22;1778;47.966;7.854;2023-07-31T01:46:13;14.40;99.90
3528;DHT22;1778;47.966;7.854;2023-07-31T01:47:15;14.30;99.90
3528;DHT22;1778;47.966;7.854;2023-07-31T01:48:16;14.30;99.90
3528;DHT22;1778;47.966;7.854;2023-07-31T01:49:18;14.40;99.90
3528;DHT22;1778;47.966;7.854;2023-07-31T01:50:19;14.30;99.90
3528;DHT22;1778;47.966;7.854;2023-07-31T01:51:21;14.30;99.90
3528;DHT22;1778;47.966;7.854;2023-07-31T01:52:23;14.30;99.90
3528;DHT22;1778;47.966;7.854;2023-07-31T01:53:24;14.40;99.90
3528;DHT22;1778;47.966;7.854;2023-07-31T01:54:26;14.30;99.90
3528;DHT22;1778;47.966;7.854;2023-07-31T01:55:27;14.30;99.90
3528;DHT22;1778;47.966;7.854;2023-07-31T01:56:29;14.30;99.90
3528;DHT22;1778;47.966;7.854;2023-07-31T01:57:30;14.30;99.90
3528;DHT22;1778;47.966;7.854;2023-07-31T01:58:31;14.30;99.90
3528;DHT22;1778;47.966;7.854;2023-07-31T01:59:33;14.30;99.90
3528;DHT22;1778;47.966;7.854;2023-07-31T02:00:35;14.30;99.90
3528;DHT22;1778;47.966;7.854;2023-07-31T02:01:36;14.20;99.90
3528;DHT22;1778;47.966;7.854;2023-07-31T02:02:39;14.30;99.90
3528;DHT22;1778;47.966;7.854;2023-07-31T02:03:41;14.30;99.90
3528;DHT22;1778;47.966;7.854;2023-07-31T02:04:43;14.20;99.90
3528;DHT22;1778;47.966;7.854;2023-07-31T02:05:46;14.20;99.90
3528;DHT22;1778;47.966;7.854;2023-07-31T02:06:48;14.30;99.90
3528;DHT22;1778;47.966;7.854;2023-07-31T02:07:49;14.30;99.90
3528;DHT22;1778;47.966;7.854;2023-07-31T02:08:51;14.20;99.90
3528;DHT22;1778;47.966;7.854;2023-07-31T02:09:53;14.20;99.90
3528;DHT22;1778;47.966;7.854;2023-07-31T02:10:55;14.30;99.90
3528;DHT22;1778;47.966;7.854;2023-07-31T02:11:57;14.20;99.90
3528;DHT22;1778;47.966;7.854;2023-07-31T02:12:58;14.10;99.90
3528;DHT22;1778;47.966;7.854;2023-07-31T02:14:00;14.10;99.90
3528;DHT22;1778;47.966;7.854;2023-07-31T02:15:01;14.20;99.90
3528;DHT22;1778;47.966;7.854;2023-07-31T02:16:04;14.10;99.90
3528;DHT22;1778;47.966;7.854;2023-07-31T02:17:07;14.10;99.90
3528;DHT22;1778;47.966;7.854;2023-07-31T02:18:10;14.10;99.90
3528;DHT22;1778;47.966;7.854;2023-07-31T02:19:11;14.10;99.90
3528;DHT22;1778;47.966;7.854;2023-07-31T02:20:12;14.10;99.90
3528;DHT22;1778;47.966;7.854;2023-07-31T02:21:14;14.10;99.90
3528;DHT22;1778;47.966;7.854;2023-07-31T02:22:16;14.10;99.90
3528;DHT22;1778;47.966;7.854;2023-07-31T02:23:18;14.10;99.90
3528;DHT22;1778;47.966;7.854;2023-07-31T02:24:20;14.10;99.90
3528;DHT22;1778;47.966;7.854;2023-07-31T02:25:21;14.00;99.90
3528;DHT22;1778;47.966;7.854;2023-07-31T02:26:23;14.00;99.90
3528;DHT22;1778;47.966;7.854;2023-07-31T02:27:24;14.00;99.90
3528;DHT22;1778;47.966;7.854;2023-07-31T02:28:29;13.90;99.90
3528;DHT22;1778;47.966;7.854;2023-07-31T02:29:32;13.90;99.90
3528;DHT22;1778;47.966;7.854;2023-07-31T02:30:33;13.90;99.90
3528;DHT22;1778;47.966;7.854;2023-07-31T02:31:35;13.90;99.90
3528;DHT22;1778;47.966;7.854;2023-07-31T02:32:36;13.90;99.90
3528;DHT22;1778;47.966;7.854;2023-07-31T02:33:38;13.90;99.90
3528;DHT22;1778;47.966;7.854;2023-07-31T02:34:39;13.90;99.90
3528;DHT22;1778;47.966;7.854;2023-07-31T02:35:42;13.90;99.90
3528;DHT22;1778;47.966;7.854;2023-07-31T02:36:43;13.80;99.90
3528;DHT22;1778;47.966;7.854;2023-07-31T02:37:44;13.90;99.90
3528;DHT22;1778;47.966;7.854;2023-07-31T02:38:46;13.90;99.90
3528;DHT22;1778;47.966;7.854;2023-07-31T02:39:48;13.90;99.90
3528;DHT22;1778;47.966;7.854;2023-07-31T02:40:49;13.90;99.90
3528;DHT22;1778;47.966;7.854;2023-07-31T02:41:51;13.90;99.90
3528;DHT22;1778;47.966;7.854;2023-07-31T02:42:53;13.80;99.90
3528;DHT22;1778;47.966;7.854;2023-07-31T02:43:54;13.80;99.90
3528;DHT22;1778;47.966;7.854;2023-07-31T02:44:55;13.90;99.90
3528;DHT22;1778;47.966;7.854;2023-07-31T02:45:57;13.90;99.90
3528;DHT22;1778;47.966;7.854;2023-07-31T02:46:59;14.00;99.90
3528;DHT22;1778;47.966;7.854;2023-07-31T02:48:00;13.90;99.90
3528;DHT22;1778;47.966;7.854;2023-07-31T02:49:02;13.90;99.90
3528;DHT22;1778;47.966;7.854;2023-07-31T02:50:04;13.90;99.90
3528;DHT22;1778;47.966;7.854;2023-07-31T02:51:05;13.80;99.90
3528;DHT22;1778;47.966;7.854;2023-07-31T02:52:07;13.80;99.90
3528;DHT22;1778;47.966;7.854;2023-07-31T02:53:08;13.80;99.90
3528;DHT22;1778;47.966;7.854;2023-07-31T02:54:10;13.80;99.90
3528;DHT22;1778;47.966;7.854;2023-07-31T02:55:12;13.80;99.90
3528;DHT22;1778;47.966;7.854;2023-07-31T02:56:13;13.80;99.90
3528;DHT22;1778;47.966;7.854;2023-07-31T02:57:15;13.80;99.90
3528;DHT22;1778;47.966;7.854;2023-07-31T02:58:17;13.80;99.90
3528;DHT22;1778;47.966;7.854;2023-07-31T02:59:20;13.80;99.90
3528;DHT22;1778;47.966;7.854;2023-07-31T03:00:22;13.80;99.90
3528;DHT22;1778;47.966;7.854;2023-07-31T03:01:23;13.80;99.90
3528;DHT22;1778;47.966;7.854;2023-07-31T03:02:25;13.80;99.90
3528;DHT22;1778;47.966;7.854;2023-07-31T03:03:26;13.80;99.90
3528;DHT22;1778;47.966;7.854;2023-07-31T03:04:28;13.80;99.90
3528;DHT22;1778;47.966;7.854;2023-07-31T03:05:29;13.90;99.90
3528;DHT22;1778;47.966;7.854;2023-07-31T03:06:31;13.80;99.90
3528;DHT22;1778;47.966;7.854;2023-07-31T03:07:32;13.80;99.90
3528;DHT22;1778;47.966;7.854;2023-07-31T03:08:34;13.80;99.90
3528;DHT22;1778;47.966;7.854;2023-07-31T03:09:35;13.80;99.90
3528;DHT22;1778;47.966;7.854;2023-07-31T03:10:37;13.90;99.90
3528;DHT22;1778;47.966;7.854;2023-07-31T03:11:38;14.00;99.90
3528;DHT22;1778;47.966;7.854;2023-07-31T03:12:40;13.90;99.90
3528;DHT22;1778;47.966;7.854;2023-07-31T03:13:42;13.80;99.90
3528;DHT22;1778;47.966;7.854;2023-07-31T03:14:44;13.80;99.90
3528;DHT22;1778;47.966;7.854;2023-07-31T03:15:45;13.90;99.90
3528;DHT22;1778;47.966;7.854;2023-07-31T03:16:47;13.90;99.90
3528;DHT22;1778;47.966;7.854;2023-07-31T03:17:49;13.80;99.90
3528;DHT22;1778;47.966;7.854;2023-07-31T03:18:50;13.80;99.90
3528;DHT22;1778;47.966;7.854;2023-07-31T03:19:52;13.90;99.90
3528;DHT22;1778;47.966;7.854;2023-07-31T03:20:53;13.80;99.90
3528;DHT22;1778;47.966;7.854;2023-07-31T03:21:55;13.80;99.90
3528;DHT22;1778;47.966;7.854;2023-07-31T03:22:56;13.80;99.90
3528;DHT22;1778;47.966;7.854;2023-07-31T03:23:58;13.80;99.90
3528;DHT22;1778;47.966;7.854;2023-07-31T03:25:03;13.80;99.90
3528;DHT22;1778;47.966;7.854;2023-07-31T03:26:07;13.80;99.90
3528;DHT22;1778;47.966;7.854;2023-07-31T03:27:09;13.80;99.90
3528;DHT22;1778;47.966;7.854;2023-07-31T03:28:10;13.80;99.90
3528;DHT22;1778;47.966;7.854;2023-07-31T03:29:12;13.90;99.90
3528;DHT22;1778;47.966;7.854;2023-07-31T03:30:15;13.80;99.90
3528;DHT22;1778;47.966;7.854;2023-07-31T03:31:16;13.90;99.90
3528;DHT22;1778;47.966;7.854;2023-07-31T03:32:18;13.80;99.90
3528;DHT22;1778;47.966;7.854;2023-07-31T03:33:19;13.80;99.90
3528;DHT22;1778;47.966;7.854;2023-07-31T03:34:21;13.80;99.90
3528;DHT22;1778;47.966;7.854;2023-07-31T03:35:23;13.80;99.90
3528;DHT22;1778;47.966;7.854;2023-07-31T03:36:25;13.80;99.90
3528;DHT22;1778;47.966;7.854;2023-07-31T03:37:27;13.80;99.90
3528;DHT22;1778;47.966;7.854;2023-07-31T03:38:29;13.80;99.90
3528;DHT22;1778;47.966;7.854;2023-07-31T03:39:31;13.80;99.90
3528;DHT22;1778;47.966;7.854;2023-07-31T03:40:32;13.80;99.90
3528;DHT22;1778;47.966;7.854;2023-07-31T03:41:34;13.80;99.90
3528;DHT22;1778;47.966;7.854;2023-07-31T03:42:35;13.80;99.90
3528;DHT22;1778;47.966;7.854;2023-07-31T03:43:36;13.80;99.90
3528;DHT22;1778;47.966;7.854;2023-07-31T03:44:38;13.90;99.90
3528;DHT22;1778;47.966;7.854;2023-07-31T03:45:39;13.80;99.90
3528;DHT22;1778;47.966;7.854;2023-07-31T03:46:41;13.90;99.90
3528;DHT22;1778;47.966;7.854;2023-07-31T03:47:43;13.90;99.90
3528;DHT22;1778;47.966;7.854;2023-07-31T03:48:44;13.80;99.90
3528;DHT22;1778;47.966;7.854;2023-07-31T03:49:46;13.80;99.90
3528;DHT22;1778;47.966;7.854;2023-07-31T03:50:48;13.80;99.90
3528;DHT22;1778;47.966;7.854;2023-07-31T03:51:50;13.80;99.90
3528;DHT22;1778;47.966;7.854;2023-07-31T03:52:52;13.80;99.90
3528;DHT22;1778;47.966;7.854;2023-07-31T03:53:53;13.80;99.90
3528;DHT22;1778;47.966;7.854;2023-07-31T03:54:55;13.90;99.90
3528;DHT22;1778;47.966;7.854;2023-07-31T03:55:57;13.90;99.90
3528;DHT22;1778;47.966;7.854;2023-07-31T03:56:58;13.90;99.90
3528;DHT22;1778;47.966;7.854;2023-07-31T03:58:00;13.80;99.90
3528;DHT22;1778;47.966;7.854;2023-07-31T03:59:01;13.90;99.90
3528;DHT22;1778;47.966;7.854;2023-07-31T04:00:03;13.90;99.90
3528;DHT22;1778;47.966;7.854;2023-07-31T04:01:12;13.90;99.90
3528;DHT22;1778;47.966;7.854;2023-07-31T04:02:13;13.90;99.90
3528;DHT22;1778;47.966;7.854;2023-07-31T04:03:15;13.90;99.90
3528;DHT22;1778;47.966;7.854;2023-07-31T04:04:17;13.90;99.90
3528;DHT22;1778;47.966;7.854;2023-07-31T04:05:18;13.90;99.90
3528;DHT22;1778;47.966;7.854;2023-07-31T04:06:20;13.90;99.90
3528;DHT22;1778;47.966;7.854;2023-07-31T04:07:22;13.90;99.90
3528;DHT22;1778;47.966;7.854;2023-07-31T04:08:23;13.90;99.90
3528;DHT22;1778;47.966;7.854;2023-07-31T04:09:25;13.90;99.90
3528;DHT22;1778;47.966;7.854;2023-07-31T04:10:26;13.90;99.90
3528;DHT22;1778;47.966;7.854;2023-07-31T04:11:28;13.90;99.90
3528;DHT22;1778;47.966;7.854;2023-07-31T04:12:29;13.90;99.90
3528;DHT22;1778;47.966;7.854;2023-07-31T04:13:31;14.00;99.90
3528;DHT22;1778;47.966;7.854;2023-07-31T04:14:33;14.00;99.90
3528;DHT22;1778;47.966;7.854;2023-07-31T04:15:34;13.90;99.90
3528;DHT22;1778;47.966;7.854;2023-07-31T04:16:36;13.90;99.90
3528;DHT22;1778;47.966;7.854;2023-07-31T04:17:38;14.00;99.90
3528;DHT22;1778;47.966;7.854;2023-07-31T04:18:40;14.00;99.90
3528;DHT22;1778;47.966;7.854;2023-07-31T04:19:41;14.00;99.90
3528;DHT22;1778;47.966;7.854;2023-07-31T04:20:43;13.90;99.90
3528;DHT22;1778;47.966;7.854;2023-07-31T04:21:45;13.90;99.90
3528;DHT22;1778;47.966;7.854;2023-07-31T04:22:46;13.90;99.90
3528;DHT22;1778;47.966;7.854;2023-07-31T04:23:48;14.00;99.90
3528;DHT22;1778;47.966;7.854;2023-07-31T04:24:49;14.00;99.90
3528;DHT22;1778;47.966;7.854;2023-07-31T04:25:51;14.10;99.90
3528;DHT22;1778;47.966;7.854;2023-07-31T04:26:53;14.10;99.90
3528;DHT22;1778;47.966;7.854;2023-07-31T04:27:55;14.10;99.90
3528;DHT22;1778;47.966;7.854;2023-07-31T04:28:56;14.10;99.90
3528;DHT22;1778;47.966;7.854;2023-07-31T04:29:58;14.10;99.90
3528;DHT22;1778;47.966;7.854;2023-07-31T04:30:59;14.10;99.90
3528;DHT22;1778;47.966;7.854;2023-07-31T04:32:01;14.10;99.90
3528;DHT22;1778;47.966;7.854;2023-07-31T04:33:03;14.10;99.90
3528;DHT22;1778;47.966;7.854;2023-07-31T04:34:04;14.10;99.90
3528;DHT22;1778;47.966;7.854;2023-07-31T04:35:06;14.20;99.90
3528;DHT22;1778;47.966;7.854;2023-07-31T04:36:08;14.20;99.90
3528;DHT22;1778;47.966;7.854;2023-07-31T04:37:09;14.10;99.90
3528;DHT22;1778;47.966;7.854;2023-07-31T04:38:11;14.10;99.90
3528;DHT22;1778;47.966;7.854;2023-07-31T04:39:12;14.20;99.90
3528;DHT22;1778;47.966;7.854;2023-07-31T04:40:15;14.30;99.90
3528;DHT22;1778;47.966;7.854;2023-07-31T04:41:17;14.30;99.90
3528;DHT22;1778;47.966;7.854;2023-07-31T04:42:18;14.30;99.90
3528;DHT22;1778;47.966;7.854;2023-07-31T04:43:20;14.30;99.90
3528;DHT22;1778;47.966;7.854;2023-07-31T04:44:21;14.30;99.90
3528;DHT22;1778;47.966;7.854;2023-07-31T04:45:23;14.40;99.90
3528;DHT22;1778;47.966;7.854;2023-07-31T04:46:24;14.40;99.90
3528;DHT22;1778;47.966;7.854;2023-07-31T04:47:25;14.50;99.90
3528;DHT22;1778;47.966;7.854;2023-07-31T04:48:27;14.50;99.90
3528;DHT22;1778;47.966;7.854;2023-07-31T04:49:29;14.50;99.90
3528;DHT22;1778;47.966;7.854;2023-07-31T04:50:31;14.50;99.90
3528;DHT22;1778;47.966;7.854;2023-07-31T04:51:32;14.50;99.90
3528;DHT22;1778;47.966;7.854;2023-07-31T04:52:34;14.50;99.90
3528;DHT22;1778;47.966;7.854;2023-07-31T04:53:35;14.50;99.90
3528;DHT22;1778;47.966;7.854;2023-07-31T04:54:37;14.70;99.90
3528;DHT22;1778;47.966;7.854;2023-07-31T04:55:38;14.70;99.90
3528;DHT22;1778;47.966;7.854;2023-07-31T04:56:40;14.70;99.90
3528;DHT22;1778;47.966;7.854;2023-07-31T04:57:42;14.80;99.90
3528;DHT22;1778;47.966;7.854;2023-07-31T04:58:44;14.70;99.90
3528;DHT22;1778;47.966;7.854;2023-07-31T04:59:45;14.80;99.90
3528;DHT22;1778;47.966;7.854;2023-07-31T05:00:48;14.90;99.90
3528;DHT22;1778;47.966;7.854;2023-07-31T05:01:50;14.90;99.90
3528;DHT22;1778;47.966;7.854;2023-07-31T05:02:51;14.80;99.90
3528;DHT22;1778;47.966;7.854;2023-07-31T05:03:53;14.90;99.90
3528;DHT22;1778;47.966;7.854;2023-07-31T05:04:54;14.90;99.90
3528;DHT22;1778;47.966;7.854;2023-07-31T05:05:56;14.90;99.90
3528;DHT22;1778;47.966;7.854;2023-07-31T05:06:58;14.90;99.90
3528;DHT22;1778;47.966;7.854;2023-07-31T05:07:59;15.00;99.90
3528;DHT22;1778;47.966;7.854;2023-07-31T05:09:01;15.00;99.90
3528;DHT22;1778;47.966;7.854;2023-07-31T05:10:03;15.10;99.90
3528;DHT22;1778;47.966;7.854;2023-07-31T05:11:04;15.10;99.90
3528;DHT22;1778;47.966;7.854;2023-07-31T05:12:06;15.10;99.90
3528;DHT22;1778;47.966;7.854;2023-07-31T05:13:08;15.10;99.90
3528;DHT22;1778;47.966;7.854;2023-07-31T05:14:09;15.10;99.90
3528;DHT22;1778;47.966;7.854;2023-07-31T05:15:11;15.10;99.90
3528;DHT22;1778;47.966;7.854;2023-07-31T05:16:13;15.10;99.90
3528;DHT22;1778;47.966;7.854;2023-07-31T05:17:14;15.10;99.90
3528;DHT22;1778;47.966;7.854;2023-07-31T05:18:16;15.30;99.90
3528;DHT22;1778;47.966;7.854;2023-07-31T05:19:17;15.40;99.90
3528;DHT22;1778;47.966;7.854;2023-07-31T05:20:19;15.40;99.90
3528;DHT22;1778;47.966;7.854;2023-07-31T05:21:21;15.40;99.90
3528;DHT22;1778;47.966;7.854;2023-07-31T05:22:22;15.50;99.90
3528;DHT22;1778;47.966;7.854;2023-07-31T05:23:23;15.50;99.90
3528;DHT22;1778;47.966;7.854;2023-07-31T05:24:25;15.50;99.90
3528;DHT22;1778;47.966;7.854;2023-07-31T05:25:26;15.50;99.90
3528;DHT22;1778;47.966;7.854;2023-07-31T05:26:28;15.60;99.90
3528;DHT22;1778;47.966;7.854;2023-07-31T05:27:29;15.70;99.90
3528;DHT22;1778;47.966;7.854;2023-07-31T05:28:31;15.70;99.90
3528;DHT22;1778;47.966;7.854;2023-07-31T05:29:33;15.70;99.90
3528;DHT22;1778;47.966;7.854;2023-07-31T05:30:34;15.80;99.90
3528;DHT22;1778;47.966;7.854;2023-07-31T05:31:36;15.80;99.90
3528;DHT22;1778;47.966;7.854;2023-07-31T05:32:39;15.90;99.90
3528;DHT22;1778;47.966;7.854;2023-07-31T05:33:42;16.00;99.90
3528;DHT22;1778;47.966;7.854;2023-07-31T05:34:44;16.00;99.90
3528;DHT22;1778;47.966;7.854;2023-07-31T05:35:46;16.00;99.90
3528;DHT22;1778;47.966;7.854;2023-07-31T05:36:52;16.00;99.90
3528;DHT22;1778;47.966;7.854;2023-07-31T05:37:56;16.10;99.90
3528;DHT22;1778;47.966;7.854;2023-07-31T05:38:58;16.10;99.90
3528;DHT22;1778;47.966;7.854;2023-07-31T05:40:00;16.20;99.90
3528;DHT22;1778;47.966;7.854;2023-07-31T05:41:01;16.20;99.90
3528;DHT22;1778;47.966;7.854;2023-07-31T05:42:03;16.30;99.90
3528;DHT22;1778;47.966;7.854;2023-07-31T05:43:05;16.30;99.90
3528;DHT22;1778;47.966;7.854;2023-07-31T05:44:09;16.30;99.90
3528;DHT22;1778;47.966;7.854;2023-07-31T05:45:11;16.40;99.90
3528;DHT22;1778;47.966;7.854;2023-07-31T05:46:12;16.40;99.90
3528;DHT22;1778;47.966;7.854;2023-07-31T05:47:14;16.50;99.90
3528;DHT22;1778;47.966;7.854;2023-07-31T05:48:15;16.50;99.90
3528;DHT22;1778;47.966;7.854;2023-07-31T05:49:17;16.70;99.90
3528;DHT22;1778;47.966;7.854;2023-07-31T05:50:19;16.70;99.90
3528;DHT22;1778;47.966;7.854;2023-07-31T05:51:20;16.80;99.90
3528;DHT22;1778;47.966;7.854;2023-07-31T05:52:22;16.80;99.90
3528;DHT22;1778;47.966;7.854;2023-07-31T05:53:23;16.80;99.90
3528;DHT22;1778;47.966;7.854;2023-07-31T05:54:25;16.90;99.90
3528;DHT22;1778;47.966;7.854;2023-07-31T05:55:27;16.90;99.90
3528;DHT22;1778;47.966;7.854;2023-07-31T05:56:29;17.00;99.90
3528;DHT22;1778;47.966;7.854;2023-07-31T05:57:30;17.00;99.90
3528;DHT22;1778;47.966;7.854;2023-07-31T05:58:32;17.00;99.90
3528;DHT22;1778;47.966;7.854;2023-07-31T05:59:34;17.10;99.90
3528;DHT22;1778;47.966;7.854;2023-07-31T06:00:35;17.10;99.90
3528;DHT22;1778;47.966;7.854;2023-07-31T06:01:38;17.20;99.90
3528;DHT22;1778;47.966;7.854;2023-07-31T06:02:39;17.30;99.90
3528;DHT22;1778;47.966;7.854;2023-07-31T06:03:41;17.40;99.90
3528;DHT22;1778;47.966;7.854;2023-07-31T06:04:43;17.40;99.90
3528;DHT22;1778;47.966;7.854;2023-07-31T06:05:45;17.40;99.90
3528;DHT22;1778;47.966;7.854;2023-07-31T06:06:46;17.50;99.90
3528;DHT22;1778;47.966;7.854;2023-07-31T06:07:48;17.50;99.90
3528;DHT22;1778;47.966;7.854;2023-07-31T06:08:51;17.60;99.90
3528;DHT22;1778;47.966;7.854;2023-07-31T06:09:52;17.60;99.90
3528;DHT22;1778;47.966;7.854;2023-07-31T06:10:56;17.70;99.90
3528;DHT22;1778;47.966;7.854;2023-07-31T06:11:57;17.70;99.90
3528;DHT22;1778;47.966;7.854;2023-07-31T06:12:59;17.80;99.90
3528;DHT22;1778;47.966;7.854;2023-07-31T06:14:01;17.90;99.90
3528;DHT22;1778;47.966;7.854;2023-07-31T06:15:03;17.90;99.90
3528;DHT22;1778;47.966;7.854;2023-07-31T06:16:05;18.00;99.90
3528;DHT22;1778;47.966;7.854;2023-07-31T06:17:07;18.00;99.90
3528;DHT22;1778;47.966;7.854;2023-07-31T06:18:09;18.10;99.90
3528;DHT22;1778;47.966;7.854;2023-07-31T06:19:11;18.10;99.90
3528;DHT22;1778;47.966;7.854;2023-07-31T06:20:14;18.20;99.90
3528;DHT22;1778;47.966;7.854;2023-07-31T06:21:15;18.30;99.90
3528;DHT22;1778;47.966;7.854;2023-07-31T06:22:18;18.30;99.90
3528;DHT22;1778;47.966;7.854;2023-07-31T06:23:20;18.40;99.90
3528;DHT22;1778;47.966;7.854;2023-07-31T06:24:22;18.40;99.90
3528;DHT22;1778;47.966;7.854;2023-07-31T06:25:24;18.50;99.90
3528;DHT22;1778;47.966;7.854;2023-07-31T06:26:28;18.50;99.90
3528;DHT22;1778;47.966;7.854;2023-07-31T06:27:30;18.50;99.90
3528;DHT22;1778;47.966;7.854;2023-07-31T06:28:32;18.50;99.90
3528;DHT22;1778;47.966;7.854;2023-07-31T06:29:34;18.50;99.90
3528;DHT22;1778;47.966;7.854;2023-07-31T06:30:36;18.50;99.90
3528;DHT22;1778;47.966;7.854;2023-07-31T06:31:37;18.50;99.90
3528;DHT22;1778;47.966;7.854;2023-07-31T06:32:39;18.60;99.90
3528;DHT22;1778;47.966;7.854;2023-07-31T06:33:42;18.70;99.90
3528;DHT22;1778;47.966;7.854;2023-07-31T06:34:43;18.70;99.90
3528;DHT22;1778;47.966;7.854;2023-07-31T06:35:45;18.80;99.90
3528;DHT22;1778;47.966;7.854;2023-07-31T06:36:47;18.80;99.90
3528;DHT22;1778;47.966;7.854;2023-07-31T06:37:48;18.90;99.90
3528;DHT22;1778;47.966;7.854;2023-07-31T06:38:50;19.00;99.90
3528;DHT22;1778;47.966;7.854;2023-07-31T06:39:51;19.00;99.90
3528;DHT22;1778;47.966;7.854;2023-07-31T06:40:53;19.00;99.90
3528;DHT22;1778;47.966;7.854;2023-07-31T06:41:54;19.10;99.90
3528;DHT22;1778;47.966;7.854;2023-07-31T06:42:56;19.20;99.90
3528;DHT22;1778;47.966;7.854;2023-07-31T06:43:58;19.20;99.90
3528;DHT22;1778;47.966;7.854;2023-07-31T06:45:00;19.20;99.90
3528;DHT22;1778;47.966;7.854;2023-07-31T06:46:09;19.20;99.90
3528;DHT22;1778;47.966;7.854;2023-07-31T06:47:11;19.20;99.90
3528;DHT22;1778;47.966;7.854;2023-07-31T06:48:13;19.30;99.90
3528;DHT22;1778;47.966;7.854;2023-07-31T06:49:14;19.20;99.90
3528;DHT22;1778;47.966;7.854;2023-07-31T06:50:17;19.30;99.90